createdAt,value
2023-04-17T00:01:11.801Z,10.00
2023-04-17T00:03:39.534Z,10.00
2023-04-17T00:06:08.381Z,10.00
2023-04-17T00:08:36.164Z,10.00
2023-04-17T00:11:08.119Z,10.10
2023-04-17T00:13:37.591Z,10.10
2023-04-17T00:16:06.116Z,10.10
2023-04-17T00:18:33.777Z,10.10
2023-04-17T00:21:01.395Z,10.10
2023-04-17T00:23:29.072Z,10.10
2023-04-17T00:25:56.694Z,10.10
2023-04-17T00:28:24.698Z,10.00
2023-04-17T00:30:52.957Z,10.00
2023-04-17T00:33:20.902Z,10.10
2023-04-17T00:35:49.092Z,10.10
2023-04-17T00:38:17.420Z,10.10
2023-04-17T00:40:46.377Z,10.10
2023-04-17T00:43:14.107Z,10.10
2023-04-17T00:45:42.612Z,10.10
2023-04-17T00:48:13.505Z,10.10
2023-04-17T00:50:44.912Z,10.00
2023-04-17T00:53:14.643Z,10.10
2023-04-17T00:55:48.350Z,10.10
2023-04-17T00:58:16.591Z,10.10
2023-04-17T01:00:44.991Z,10.10
2023-04-17T01:03:13.378Z,10.00
2023-04-17T01:05:42.229Z,10.10
2023-04-17T01:08:10.821Z,10.00
2023-04-17T01:10:38.553Z,10.00
2023-04-17T01:13:08.947Z,10.00
2023-04-17T01:15:39.741Z,10.00
2023-04-17T01:18:07.762Z,10.00
2023-04-17T01:20:36.228Z,10.00
2023-04-17T01:23:04.269Z,10.00
2023-04-17T01:25:32.343Z,10.10
2023-04-17T01:28:00.369Z,10.00
2023-04-17T01:30:30.039Z,10.00
2023-04-17T01:33:04.346Z,9.90
2023-04-17T01:35:32.093Z,9.90
2023-04-17T01:37:59.902Z,9.90
2023-04-17T01:40:28.492Z,9.90
2023-04-17T01:42:56.245Z,9.90
2023-04-17T01:45:23.901Z,9.90
2023-04-17T01:47:51.936Z,9.80
2023-04-17T01:50:20.141Z,9.80
2023-04-17T01:52:48.455Z,9.80
2023-04-17T01:55:16.167Z,9.80
2023-04-17T01:57:43.849Z,9.80
2023-04-17T02:00:12.589Z,9.90
2023-04-17T02:02:41.210Z,9.80
2023-04-17T02:05:09.463Z,9.80
2023-04-17T02:07:38.015Z,9.80
2023-04-17T02:10:06.891Z,9.80
2023-04-17T02:12:34.615Z,9.80
2023-04-17T02:15:02.320Z,9.70
2023-04-17T02:17:33.113Z,9.80
2023-04-17T02:20:07.762Z,9.80
2023-04-17T02:22:38.329Z,9.80
2023-04-17T02:25:07.208Z,9.80
2023-04-17T02:27:34.862Z,9.80
2023-04-17T02:30:03.862Z,9.90
2023-04-17T02:32:31.682Z,9.90
2023-04-17T02:34:59.454Z,9.90
2023-04-17T02:37:27.223Z,9.90
2023-04-17T02:39:57.270Z,9.80
2023-04-17T02:42:25.053Z,9.80
2023-04-17T02:44:54.083Z,9.80
2023-04-17T02:47:23.050Z,9.80
2023-04-17T02:49:51.249Z,9.70
2023-04-17T02:52:19.479Z,9.70
2023-04-17T02:54:47.414Z,9.70
2023-04-17T02:57:15.466Z,9.70
2023-04-17T02:59:43.203Z,9.70
2023-04-17T03:02:11.635Z,9.60
2023-04-17T03:04:39.375Z,9.60
2023-04-17T03:07:07.228Z,9.60
2023-04-17T03:09:35.128Z,9.50
2023-04-17T03:12:05.923Z,9.50
2023-04-17T03:14:33.667Z,9.40
2023-04-17T03:17:01.630Z,9.40
2023-04-17T03:19:29.598Z,9.40
2023-04-17T03:21:57.459Z,9.40
2023-04-17T03:24:25.421Z,9.40
2023-04-17T03:26:54.166Z,9.40
2023-04-17T03:29:22.787Z,9.40
2023-04-17T03:31:50.853Z,9.40
2023-04-17T03:34:21.875Z,9.40
2023-04-17T03:36:50.905Z,9.40
2023-04-17T03:39:18.577Z,9.40
2023-04-17T03:41:46.271Z,9.40
2023-04-17T03:44:14.117Z,9.50
2023-04-17T03:46:41.754Z,9.40
2023-04-17T03:49:09.850Z,9.40
2023-04-17T03:51:38.315Z,9.50
2023-04-17T03:54:12.682Z,9.50
2023-04-17T03:56:42.335Z,9.50
2023-04-17T03:59:10.381Z,9.50
2023-04-17T04:01:44.196Z,9.50
2023-04-17T04:04:24.841Z,9.50
2023-04-17T04:07:01.657Z,9.40
2023-04-17T04:09:30.206Z,9.40
2023-04-17T04:11:59.122Z,9.40
2023-04-17T04:14:28.248Z,9.40
2023-04-17T04:16:56.271Z,9.40
2023-04-17T04:19:24.048Z,9.30
2023-04-17T04:21:53.747Z,9.30
2023-04-17T04:24:25.732Z,9.20
2023-04-17T04:26:53.874Z,9.20
2023-04-17T04:29:25.700Z,9.10
2023-04-17T04:31:59.857Z,9.10
2023-04-17T04:34:36.694Z,9.20
2023-04-17T04:37:04.542Z,9.20
2023-04-17T04:39:39.687Z,9.20
2023-04-17T04:42:10.113Z,9.20
2023-04-17T04:44:56.326Z,9.20
2023-04-17T04:47:27.668Z,9.20
2023-04-17T04:49:56.089Z,9.20
2023-04-17T04:52:24.442Z,9.20
2023-04-17T04:54:55.868Z,9.10
2023-04-17T04:57:24.776Z,9.10
2023-04-17T04:59:56.692Z,9.20
2023-04-17T05:02:34.201Z,9.20
2023-04-17T05:05:03.337Z,9.10
2023-04-17T05:07:33.530Z,9.10
2023-04-17T05:10:01.942Z,9.10
2023-04-17T05:12:35.205Z,9.10
2023-04-17T05:15:05.323Z,9.10
2023-04-17T05:17:34.245Z,9.10
2023-04-17T05:20:02.203Z,9.10
2023-04-17T05:22:31.967Z,9.10
2023-04-17T05:25:08.570Z,9.10
2023-04-17T05:27:36.392Z,9.10
2023-04-17T05:30:05.989Z,9.20
2023-04-17T05:32:35.339Z,9.20
2023-04-17T05:35:21.903Z,9.30
2023-04-17T05:37:52.722Z,9.50
2023-04-17T05:40:20.908Z,9.60
2023-04-17T05:42:50.479Z,9.60
2023-04-17T05:45:18.629Z,9.70
2023-04-17T05:47:46.781Z,9.60
2023-04-17T05:50:15.670Z,9.70
2023-04-17T05:52:43.446Z,9.60
2023-04-17T05:55:13.447Z,9.50
2023-04-17T05:57:41.349Z,9.50
2023-04-17T06:00:13.319Z,9.40
2023-04-17T06:02:51.150Z,9.40
2023-04-17T06:05:29.075Z,9.50
2023-04-17T06:07:57.039Z,9.60
2023-04-17T06:10:25.056Z,9.70
2023-04-17T06:12:54.240Z,9.70
2023-04-17T06:15:23.060Z,9.80
2023-04-17T06:17:50.977Z,9.80
2023-04-17T06:20:19.124Z,9.90
2023-04-17T06:22:47.120Z,9.80
2023-04-17T06:25:14.927Z,10.00
2023-04-17T06:27:43.272Z,10.10
2023-04-17T06:30:12.228Z,10.10
2023-04-17T06:32:49.450Z,10.30
2023-04-17T06:35:18.967Z,10.30
2023-04-17T06:37:55.133Z,10.40
2023-04-17T06:40:23.274Z,10.30
2023-04-17T06:42:52.336Z,10.20
2023-04-17T06:45:21.993Z,10.30
2023-04-17T06:47:49.913Z,10.40
2023-04-17T06:50:18.715Z,10.30
2023-04-17T06:52:46.567Z,10.30
2023-04-17T06:55:14.304Z,10.50
2023-04-17T06:57:42.024Z,10.60
2023-04-17T07:00:11.525Z,10.60
2023-04-17T07:02:39.331Z,10.70
2023-04-17T07:05:08.549Z,10.70
2023-04-17T07:07:36.642Z,10.80
2023-04-17T07:10:06.387Z,11.00
2023-04-17T07:12:34.636Z,10.80
2023-04-17T07:15:02.483Z,10.70
2023-04-17T07:17:30.490Z,10.70
2023-04-17T07:19:59.235Z,10.70
2023-04-17T07:22:27.491Z,10.80
2023-04-17T07:24:55.464Z,10.90
2023-04-17T07:27:23.271Z,10.90
2023-04-17T07:29:54.809Z,11.00
2023-04-17T07:32:26.865Z,11.20
2023-04-17T07:34:54.600Z,11.10
2023-04-17T07:37:22.517Z,11.00
2023-04-17T07:39:50.907Z,11.10
2023-04-17T07:42:18.550Z,10.90
2023-04-17T07:44:48.764Z,11.00
2023-04-17T07:47:16.608Z,11.00
2023-04-17T07:49:49.009Z,11.00
2023-04-17T07:52:18.302Z,11.00
2023-04-17T07:54:46.346Z,11.20
2023-04-17T07:57:15.679Z,11.20
2023-04-17T07:59:43.469Z,11.40
2023-04-17T08:02:11.494Z,11.50
2023-04-17T08:04:40.484Z,11.80
2023-04-17T08:07:10.848Z,11.90
2023-04-17T08:09:40.619Z,11.90
2023-04-17T08:12:09.894Z,12.00
2023-04-17T08:14:38.875Z,12.10
2023-04-17T08:17:07.865Z,12.40
2023-04-17T08:19:35.889Z,12.70
2023-04-17T08:22:06.357Z,12.90
2023-04-17T08:24:34.279Z,13.00
2023-04-17T08:27:02.703Z,13.10
2023-04-17T08:29:30.353Z,13.30
2023-04-17T08:32:13.442Z,13.10
2023-04-17T08:34:45.058Z,12.90
2023-04-17T08:37:13.158Z,13.20
2023-04-17T08:39:41.009Z,13.50
2023-04-17T08:42:14.784Z,13.50
2023-04-17T08:44:44.646Z,13.70
2023-04-17T08:47:19.020Z,13.70
2023-04-17T08:49:47.393Z,14.40
2023-04-17T08:52:15.312Z,15.40
2023-04-17T08:54:43.446Z,15.60
2023-04-17T08:57:11.189Z,16.10
2023-04-17T08:59:39.442Z,15.90
2023-04-17T09:02:09.697Z,15.90
2023-04-17T09:04:47.328Z,15.60
2023-04-17T09:07:15.808Z,15.40
2023-04-17T09:09:57.946Z,14.70
2023-04-17T09:12:27.358Z,14.40
2023-04-17T09:14:55.645Z,14.40
2023-04-17T09:17:23.563Z,14.70
2023-04-17T09:20:12.319Z,14.70
2023-04-17T09:22:41.584Z,14.30
2023-04-17T09:25:23.269Z,14.40
2023-04-17T09:27:51.300Z,14.40
2023-04-17T09:30:19.192Z,14.30
2023-04-17T09:32:47.453Z,14.60
2023-04-17T09:35:28.465Z,14.30
2023-04-17T09:37:59.603Z,14.70
2023-04-17T09:40:41.363Z,15.30
2023-04-17T09:43:11.195Z,15.60
2023-04-17T09:45:42.910Z,15.40
2023-04-17T09:48:13.973Z,15.40
2023-04-17T09:50:41.811Z,14.90
2023-04-17T09:53:09.804Z,14.90
2023-04-17T09:55:41.751Z,14.70
2023-04-17T09:58:10.698Z,14.60
2023-04-17T10:00:42.783Z,14.80
2023-04-17T10:03:15.951Z,14.70
2023-04-17T10:05:44.301Z,15.10
2023-04-17T10:08:12.330Z,15.60
2023-04-17T10:10:40.420Z,15.80
2023-04-17T10:13:12.908Z,15.40
2023-04-17T10:15:41.874Z,15.10
2023-04-17T10:18:25.551Z,15.20
2023-04-17T10:20:55.659Z,15.40
2023-04-17T10:23:35.337Z,15.80
2023-04-17T10:26:30.605Z,15.70
2023-04-17T10:28:58.940Z,15.50
2023-04-17T10:32:21.897Z,15.30
2023-04-17T10:34:50.100Z,15.40
2023-04-17T10:37:19.208Z,15.20
2023-04-17T10:40:12.485Z,15.10
2023-04-17T10:42:41.358Z,14.80
2023-04-17T10:45:20.199Z,14.60
2023-04-17T10:47:59.564Z,14.80
2023-04-17T10:50:30.608Z,15.00
2023-04-17T10:52:59.095Z,15.30
2023-04-17T10:55:27.931Z,15.40
2023-04-17T10:58:05.138Z,15.60
2023-04-17T11:00:38.580Z,15.80
2023-04-17T11:03:08.155Z,15.90
2023-04-17T11:05:44.326Z,15.90
2023-04-17T11:08:12.403Z,16.00
2023-04-17T11:10:40.879Z,15.60
2023-04-17T11:13:11.784Z,14.90
2023-04-17T11:15:39.848Z,14.60
2023-04-17T11:18:08.325Z,14.50
2023-04-17T11:20:38.040Z,14.70
2023-04-17T11:23:07.881Z,14.70
2023-04-17T11:25:38.525Z,15.00
2023-04-17T11:28:10.960Z,15.30
2023-04-17T11:30:45.697Z,15.10
2023-04-17T11:33:16.482Z,15.10
2023-04-17T11:35:45.560Z,15.30
2023-04-17T11:38:24.617Z,15.40
2023-04-17T11:41:01.492Z,15.40
2023-04-17T11:43:38.523Z,15.70
2023-04-17T11:46:10.435Z,15.90
2023-04-17T11:48:41.119Z,15.90
2023-04-17T11:51:09.218Z,16.10
2023-04-17T11:53:36.937Z,15.90
2023-04-17T11:56:19.197Z,15.80
2023-04-17T11:58:54.322Z,15.40
2023-04-17T12:01:27.171Z,15.40
2023-04-17T12:04:00.048Z,15.30
2023-04-17T12:06:39.082Z,15.30
2023-04-17T12:09:18.629Z,15.50
2023-04-17T12:11:46.691Z,15.60
2023-04-17T12:14:14.579Z,15.40
2023-04-17T12:16:42.531Z,15.40
2023-04-17T12:19:13.283Z,15.40
2023-04-17T12:21:41.100Z,15.40
2023-04-17T12:24:09.015Z,15.40
2023-04-17T12:26:36.806Z,15.40
2023-04-17T12:29:04.577Z,15.30
2023-04-17T12:31:32.256Z,15.40
2023-04-17T12:34:00.130Z,15.50
2023-04-17T12:36:27.890Z,15.40
2023-04-17T12:38:55.630Z,15.70
2023-04-17T12:41:25.678Z,15.80
2023-04-17T12:43:54.821Z,15.80
2023-04-17T12:46:22.820Z,15.60
2023-04-17T12:48:55.767Z,15.40
2023-04-17T12:51:23.541Z,15.50
2023-04-17T12:53:53.206Z,15.40
2023-04-17T12:56:21.414Z,15.40
2023-04-17T12:58:49.501Z,15.60
2023-04-17T13:01:17.771Z,15.80
2023-04-17T13:03:45.653Z,16.00
2023-04-17T13:06:16.010Z,16.30
2023-04-17T13:08:43.725Z,16.60
2023-04-17T13:11:11.622Z,16.70
2023-04-17T13:13:39.349Z,16.60
2023-04-17T13:16:07.754Z,16.60
2023-04-17T13:18:35.647Z,16.20
2023-04-17T13:21:03.703Z,16.00
2023-04-17T13:23:31.528Z,16.20
2023-04-17T13:25:59.205Z,16.70
2023-04-17T13:28:26.871Z,16.80
2023-04-17T13:30:54.580Z,16.70
2023-04-17T13:33:22.328Z,16.30
2023-04-17T13:35:52.776Z,16.50
2023-04-17T13:38:20.534Z,16.30
2023-04-17T13:40:48.454Z,16.20
2023-04-17T13:43:16.310Z,16.30
2023-04-17T13:45:44.309Z,16.40
2023-04-17T13:48:12.010Z,16.50
2023-04-17T13:50:40.035Z,16.40
2023-04-17T13:53:09.501Z,16.10
2023-04-17T13:55:38.994Z,16.20
2023-04-17T13:58:06.617Z,16.30
2023-04-17T14:00:34.376Z,16.40
2023-04-17T14:03:02.504Z,16.70
2023-04-17T14:05:33.481Z,17.00
2023-04-17T14:08:01.646Z,17.20
2023-04-17T14:10:29.429Z,16.90
2023-04-17T14:12:57.298Z,16.90
2023-04-17T14:15:25.105Z,16.90
2023-04-17T14:17:54.538Z,16.90
2023-04-17T14:20:22.425Z,16.90
2023-04-17T14:22:51.126Z,16.60
2023-04-17T14:25:19.079Z,16.50
2023-04-17T14:27:47.060Z,16.20
2023-04-17T14:30:15.169Z,16.20
2023-04-17T14:32:42.940Z,16.10
2023-04-17T14:35:10.834Z,16.10
2023-04-17T14:37:38.931Z,16.20
2023-04-17T14:40:08.627Z,16.40
2023-04-17T14:42:47.326Z,16.50
2023-04-17T14:45:19.086Z,16.70
2023-04-17T14:47:46.932Z,16.50
2023-04-17T14:50:14.959Z,16.30
2023-04-17T14:52:42.623Z,16.10
2023-04-17T14:55:12.413Z,16.10
2023-04-17T14:57:40.742Z,16.20
2023-04-17T15:00:09.855Z,16.30
2023-04-17T15:02:39.424Z,16.40
2023-04-17T15:05:09.246Z,16.60
2023-04-17T15:07:37.162Z,16.30
2023-04-17T15:10:06.061Z,16.30
2023-04-17T15:12:34.134Z,16.40
2023-04-17T15:15:02.120Z,16.30
2023-04-17T15:17:30.104Z,16.30
2023-04-17T15:20:00.299Z,16.20
2023-04-17T15:22:33.715Z,16.30
2023-04-17T15:25:01.475Z,16.20
2023-04-17T15:27:29.193Z,16.00
2023-04-17T15:29:56.923Z,15.90
2023-04-17T15:32:24.896Z,15.80
2023-04-17T15:34:53.353Z,15.80
2023-04-17T15:37:21.535Z,16.00
2023-04-17T15:39:49.255Z,16.20
2023-04-17T15:42:17.680Z,16.20
2023-04-17T15:44:46.006Z,16.30
2023-04-17T15:47:13.706Z,16.30
2023-04-17T15:49:41.494Z,16.30
2023-04-17T15:52:09.370Z,16.20
2023-04-17T15:54:37.194Z,16.00
2023-04-17T15:57:04.980Z,15.70
2023-04-17T15:59:33.364Z,15.50
2023-04-17T16:02:01.361Z,15.40
2023-04-17T16:04:29.338Z,15.40
2023-04-17T16:06:57.151Z,15.50
2023-04-17T16:09:25.225Z,15.60
2023-04-17T16:11:53.298Z,15.70
2023-04-17T16:14:23.071Z,15.80
2023-04-17T16:16:51.217Z,16.00
2023-04-17T16:19:20.602Z,16.00
2023-04-17T16:21:49.473Z,16.00
2023-04-17T16:24:17.476Z,15.90
2023-04-17T16:26:45.512Z,15.80
2023-04-17T16:29:13.596Z,15.90
2023-04-17T16:31:41.665Z,15.90
2023-04-17T16:34:09.809Z,15.80
2023-04-17T16:36:37.660Z,15.80
2023-04-17T16:39:07.452Z,15.80
2023-04-17T16:41:36.266Z,15.80
2023-04-17T16:44:05.129Z,15.80
2023-04-17T16:46:45.587Z,15.60
2023-04-17T16:49:20.969Z,15.70
2023-04-17T16:51:48.914Z,15.60
2023-04-17T16:54:18.843Z,15.60
2023-04-17T16:56:50.707Z,15.70
2023-04-17T16:59:18.692Z,15.60
2023-04-17T17:01:49.868Z,15.50
2023-04-17T17:04:17.578Z,15.40
2023-04-17T17:06:45.281Z,15.50
2023-04-17T17:09:13.408Z,15.40
2023-04-17T17:11:41.679Z,15.40
2023-04-17T17:14:09.527Z,15.50
2023-04-17T17:16:37.356Z,15.60
2023-04-17T17:19:06.031Z,15.60
2023-04-17T17:21:33.946Z,15.80
2023-04-17T17:24:01.712Z,15.80
2023-04-17T17:26:29.424Z,15.80
2023-04-17T17:28:57.221Z,15.70
2023-04-17T17:31:24.961Z,15.70
2023-04-17T17:33:56.262Z,15.70
2023-04-17T17:36:24.310Z,15.60
2023-04-17T17:38:55.890Z,15.60
2023-04-17T17:41:27.533Z,15.50
2023-04-17T17:43:56.732Z,15.30
2023-04-17T17:46:24.759Z,15.20
2023-04-17T17:48:52.444Z,15.00
2023-04-17T17:51:22.749Z,14.90
2023-04-17T17:53:50.513Z,14.80
2023-04-17T17:56:18.954Z,14.80
2023-04-17T17:58:46.632Z,14.70
2023-04-17T18:01:14.458Z,14.70
2023-04-17T18:03:42.349Z,14.70
2023-04-17T18:06:10.191Z,14.50
2023-04-17T18:08:38.549Z,14.40
2023-04-17T18:11:06.443Z,14.30
2023-04-17T18:13:34.322Z,14.30
2023-04-17T18:16:05.147Z,14.30
2023-04-17T18:18:33.038Z,14.30
2023-04-17T18:21:00.858Z,14.30
2023-04-17T18:23:28.843Z,14.20
2023-04-17T18:26:04.227Z,14.10
2023-04-17T18:28:33.427Z,13.90
2023-04-17T18:31:01.385Z,14.00
2023-04-17T18:33:29.154Z,13.90
2023-04-17T18:35:56.986Z,13.80
2023-04-17T18:38:25.241Z,13.70
2023-04-17T18:40:58.476Z,13.50
2023-04-17T18:43:28.964Z,13.40
2023-04-17T18:45:57.013Z,13.20
2023-04-17T18:48:25.690Z,13.50
2023-04-17T18:50:53.626Z,13.50
2023-04-17T18:53:21.595Z,13.80
2023-04-17T18:55:49.598Z,13.70
2023-04-17T18:58:17.381Z,13.60
2023-04-17T19:00:45.101Z,13.60
2023-04-17T19:03:12.999Z,13.50
2023-04-17T19:05:40.686Z,13.50
2023-04-17T19:08:09.684Z,13.40
2023-04-17T19:10:39.949Z,13.40
2023-04-17T19:13:09.891Z,13.50
2023-04-17T19:15:38.128Z,13.40
2023-04-17T19:18:06.777Z,13.40
2023-04-17T19:20:36.413Z,13.40
2023-04-17T19:23:04.685Z,13.60
2023-04-17T19:25:32.560Z,13.70
2023-04-17T19:28:00.288Z,13.60
2023-04-17T19:30:28.033Z,13.70
2023-04-17T19:32:55.922Z,13.60
2023-04-17T19:35:23.741Z,13.50
2023-04-17T19:37:51.565Z,13.40
2023-04-17T19:40:24.995Z,13.30
2023-04-17T19:42:54.326Z,13.40
2023-04-17T19:45:22.114Z,13.20
2023-04-17T19:47:55.120Z,13.00
2023-04-17T19:50:27.407Z,13.00
2023-04-17T19:52:57.825Z,12.90
2023-04-17T19:55:25.852Z,12.80
2023-04-17T19:57:56.280Z,12.60
2023-04-17T20:00:29.444Z,12.60
2023-04-17T20:02:58.144Z,12.50
2023-04-17T20:05:26.470Z,12.40
2023-04-17T20:07:55.540Z,12.40
2023-04-17T20:10:23.671Z,12.30
2023-04-17T20:12:51.509Z,12.40
2023-04-17T20:15:22.169Z,12.30
2023-04-17T20:17:51.565Z,12.20
2023-04-17T20:20:26.426Z,12.20
2023-04-17T20:22:58.370Z,12.20
2023-04-17T20:25:35.753Z,12.30
2023-04-17T20:28:16.362Z,12.30
2023-04-17T20:30:56.866Z,12.50
2023-04-17T20:33:32.979Z,12.50
2023-04-17T20:36:03.550Z,12.50
2023-04-17T20:38:34.391Z,12.60
2023-04-17T20:41:10.788Z,12.50
2023-04-17T20:43:40.030Z,12.40
2023-04-17T20:46:08.113Z,12.20
2023-04-17T20:48:39.146Z,12.20
2023-04-17T20:51:12.522Z,12.30
2023-04-17T20:53:55.876Z,12.20
2023-04-17T20:56:28.542Z,12.20
2023-04-17T20:58:59.177Z,12.20
2023-04-17T21:01:26.960Z,12.10
2023-04-17T21:03:55.013Z,12.10
2023-04-17T21:06:23.076Z,12.10
2023-04-17T21:08:54.765Z,11.90
2023-04-17T21:11:22.819Z,11.80
2023-04-17T21:13:50.569Z,11.70
2023-04-17T21:16:23.108Z,11.60
2023-04-17T21:18:50.963Z,11.70
2023-04-17T21:21:18.989Z,11.70
2023-04-17T21:23:46.805Z,11.70
2023-04-17T21:26:14.668Z,11.60
2023-04-17T21:28:43.180Z,11.60
2023-04-17T21:31:15.760Z,11.60
2023-04-17T21:33:43.449Z,11.50
2023-04-17T21:36:11.524Z,11.40
2023-04-17T21:38:39.577Z,11.40
2023-04-17T21:41:09.280Z,11.20
2023-04-17T21:43:37.393Z,11.20
2023-04-17T21:46:12.444Z,11.10
2023-04-17T21:48:43.777Z,11.30
2023-04-17T21:51:11.663Z,11.20
2023-04-17T21:53:39.484Z,11.10
2023-04-17T21:56:08.720Z,11.10
2023-04-17T21:58:36.430Z,11.20
2023-04-17T22:01:04.474Z,11.10
2023-04-17T22:03:33.141Z,11.10
2023-04-17T22:06:01.029Z,11.00
2023-04-17T22:08:28.733Z,10.90
2023-04-17T22:10:56.507Z,10.80
2023-04-17T22:13:25.093Z,10.70
2023-04-17T22:15:53.128Z,10.80
2023-04-17T22:18:21.850Z,10.70
2023-04-17T22:20:49.637Z,10.80
2023-04-17T22:23:17.351Z,10.90
2023-04-17T22:25:45.279Z,10.70
2023-04-17T22:28:13.392Z,10.70
2023-04-17T22:30:41.382Z,10.60
2023-04-17T22:33:09.132Z,10.50
2023-04-17T22:35:37.042Z,10.40
2023-04-17T22:38:04.853Z,10.50
2023-04-17T22:40:32.626Z,10.40
2023-04-17T22:43:03.465Z,10.40
2023-04-17T22:45:31.412Z,10.20
2023-04-17T22:47:59.332Z,10.30
2023-04-17T22:50:30.444Z,10.20
2023-04-17T22:52:58.779Z,10.20
2023-04-17T22:55:27.440Z,10.10
2023-04-17T22:57:57.728Z,10.00
2023-04-17T23:00:25.817Z,9.90
2023-04-17T23:02:53.554Z,9.80
2023-04-17T23:05:21.324Z,9.60
2023-04-17T23:07:49.214Z,9.80
2023-04-17T23:10:17.011Z,9.70
2023-04-17T23:12:44.883Z,9.80
2023-04-17T23:15:13.346Z,9.80
2023-04-17T23:17:41.148Z,9.80
2023-04-17T23:20:09.942Z,9.70
2023-04-17T23:22:37.966Z,9.60
2023-04-17T23:25:07.222Z,9.60
2023-04-17T23:27:34.893Z,9.50
2023-04-17T23:30:03.778Z,9.50
2023-04-17T23:32:31.555Z,9.40
2023-04-17T23:34:59.487Z,9.30
2023-04-17T23:37:27.071Z,9.30
2023-04-17T23:39:54.860Z,9.20
2023-04-17T23:42:22.559Z,9.20
2023-04-17T23:44:50.316Z,9.10
2023-04-17T23:47:18.266Z,9.00
2023-04-17T23:49:47.534Z,8.90
2023-04-17T23:52:19.635Z,8.90
2023-04-17T23:54:47.406Z,8.80
2023-04-17T23:57:15.080Z,8.90
2023-04-17T23:59:42.916Z,8.90
